sensor_id;sensor_type;location;lat;lon;timestamp;P1;durP1;ratioP1;P2;durP2;ratioP2
14187;SDS011;7175;51.978;5.330;2022-07-23T00:01:37;24.43;;;22.73;;
14187;SDS011;7175;51.978;5.330;2022-07-23T00:04:09;25.53;;;23.83;;
14187;SDS011;7175;51.978;5.330;2022-07-23T00:06:40;25.83;;;24.03;;
14187;SDS011;7175;51.978;5.330;2022-07-23T00:09:09;26.77;;;24.97;;
14187;SDS011;7175;51.978;5.330;2022-07-23T00:11:38;25.53;;;23.83;;
14187;SDS011;7175;51.978;5.330;2022-07-23T00:19:33;26.03;;;24.23;;
14187;SDS011;7175;51.978;5.330;2022-07-23T00:22:05;26.10;;;24.30;;
14187;SDS011;7175;51.978;5.330;2022-07-23T00:24:34;25.93;;;24.13;;
14187;SDS011;7175;51.978;5.330;2022-07-23T00:27:02;26.67;;;24.87;;
14187;SDS011;7175;51.978;5.330;2022-07-23T00:29:33;27.23;;;25.33;;
14187;SDS011;7175;51.978;5.330;2022-07-23T00:32:03;26.00;;;24.20;;
14187;SDS011;7175;51.978;5.330;2022-07-23T00:34:33;25.83;;;24.03;;
14187;SDS011;7175;51.978;5.330;2022-07-23T00:37:02;25.20;;;23.50;;
14187;SDS011;7175;51.978;5.330;2022-07-23T00:39:34;24.23;;;22.53;;
14187;SDS011;7175;51.978;5.330;2022-07-23T00:42:03;24.50;;;22.80;;
14187;SDS011;7175;51.978;5.330;2022-07-23T00:44:39;24.00;;;22.37;;
14187;SDS011;7175;51.978;5.330;2022-07-23T00:47:13;24.50;;;22.90;;
14187;SDS011;7175;51.978;5.330;2022-07-23T00:49:44;23.77;;;22.17;;
14187;SDS011;7175;51.978;5.330;2022-07-23T00:52:14;23.33;;;21.73;;
14187;SDS011;7175;51.978;5.330;2022-07-23T00:54:43;23.07;;;21.47;;
14187;SDS011;7175;51.978;5.330;2022-07-23T01:00:09;22.83;;;21.23;;
14187;SDS011;7175;51.978;5.330;2022-07-23T01:02:47;22.90;;;21.30;;
14187;SDS011;7175;51.978;5.330;2022-07-23T01:05:17;22.60;;;21.00;;
14187;SDS011;7175;51.978;5.330;2022-07-23T01:07:56;22.30;;;20.70;;
14187;SDS011;7175;51.978;5.330;2022-07-23T01:10:26;22.53;;;20.93;;
14187;SDS011;7175;51.978;5.330;2022-07-23T01:13:07;24.03;;;22.23;;
14187;SDS011;7175;51.978;5.330;2022-07-23T01:15:52;22.67;;;21.07;;
14187;SDS011;7175;51.978;5.330;2022-07-23T01:18:22;24.10;;;22.33;;
14187;SDS011;7175;51.978;5.330;2022-07-23T01:20:51;23.70;;;22.00;;
14187;SDS011;7175;51.978;5.330;2022-07-23T01:23:21;23.83;;;22.13;;
14187;SDS011;7175;51.978;5.330;2022-07-23T01:25:52;23.60;;;22.00;;
14187;SDS011;7175;51.978;5.330;2022-07-23T01:30:56;23.53;;;21.90;;
14187;SDS011;7175;51.978;5.330;2022-07-23T01:33:31;23.30;;;21.70;;
14187;SDS011;7175;51.978;5.330;2022-07-23T01:36:02;23.67;;;21.97;;
14187;SDS011;7175;51.978;5.330;2022-07-23T01:38:38;25.20;;;23.30;;
14187;SDS011;7175;51.978;5.330;2022-07-23T01:41:07;24.10;;;22.40;;
14187;SDS011;7175;51.978;5.330;2022-07-23T01:43:37;25.33;;;23.53;;
14187;SDS011;7175;51.978;5.330;2022-07-23T01:46:12;26.00;;;24.17;;
14187;SDS011;7175;51.978;5.330;2022-07-23T01:51:17;27.83;;;25.93;;
14187;SDS011;7175;51.978;5.330;2022-07-23T01:53:47;29.03;;;27.13;;
14187;SDS011;7175;51.978;5.330;2022-07-23T01:56:16;28.10;;;26.20;;
14187;SDS011;7175;51.978;5.330;2022-07-23T01:58:49;30.67;;;28.67;;
14187;SDS011;7175;51.978;5.330;2022-07-23T02:01:24;30.00;;;28.00;;
14187;SDS011;7175;51.978;5.330;2022-07-23T02:03:52;30.37;;;28.37;;
14187;SDS011;7175;51.978;5.330;2022-07-23T02:06:21;32.50;;;29.90;;
14187;SDS011;7175;51.978;5.330;2022-07-23T02:08:52;30.83;;;28.83;;
14187;SDS011;7175;51.978;5.330;2022-07-23T02:11:20;34.10;;;31.90;;
14187;SDS011;7175;51.978;5.330;2022-07-23T02:13:51;33.67;;;31.57;;
14187;SDS011;7175;51.978;5.330;2022-07-23T02:16:27;35.03;;;32.83;;
14187;SDS011;7175;51.978;5.330;2022-07-23T02:19:03;35.50;;;33.30;;
14187;SDS011;7175;51.978;5.330;2022-07-23T02:21:32;36.13;;;33.83;;
14187;SDS011;7175;51.978;5.330;2022-07-23T02:24:02;36.97;;;34.67;;
14187;SDS011;7175;51.978;5.330;2022-07-23T02:26:32;38.20;;;35.87;;
14187;SDS011;7175;51.978;5.330;2022-07-23T02:29:01;38.03;;;35.73;;
14187;SDS011;7175;51.978;5.330;2022-07-23T02:31:33;38.57;;;36.17;;
14187;SDS011;7175;51.978;5.330;2022-07-23T02:34:02;40.53;;;38.03;;
14187;SDS011;7175;51.978;5.330;2022-07-23T02:36:44;42.10;;;39.60;;
14187;SDS011;7175;51.978;5.330;2022-07-23T02:39:16;41.63;;;39.13;;
14187;SDS011;7175;51.978;5.330;2022-07-23T02:41:46;42.00;;;39.50;;
14187;SDS011;7175;51.978;5.330;2022-07-23T02:44:14;42.23;;;39.73;;
14187;SDS011;7175;51.978;5.330;2022-07-23T02:46:49;42.67;;;40.17;;
14187;SDS011;7175;51.978;5.330;2022-07-23T02:49:18;43.93;;;41.33;;
14187;SDS011;7175;51.978;5.330;2022-07-23T02:51:48;44.13;;;41.53;;
14187;SDS011;7175;51.978;5.330;2022-07-23T02:54:19;44.17;;;41.57;;
14187;SDS011;7175;51.978;5.330;2022-07-23T02:56:48;43.03;;;40.43;;
14187;SDS011;7175;51.978;5.330;2022-07-23T02:59:24;43.27;;;40.67;;
14187;SDS011;7175;51.978;5.330;2022-07-23T03:01:53;41.70;;;39.20;;
14187;SDS011;7175;51.978;5.330;2022-07-23T03:04:24;41.60;;;39.00;;
14187;SDS011;7175;51.978;5.330;2022-07-23T03:06:52;41.70;;;39.20;;
14187;SDS011;7175;51.978;5.330;2022-07-23T03:09:24;41.80;;;39.30;;
14187;SDS011;7175;51.978;5.330;2022-07-23T03:12:02;42.50;;;40.00;;
14187;SDS011;7175;51.978;5.330;2022-07-23T03:14:38;44.10;;;41.50;;
14187;SDS011;7175;51.978;5.330;2022-07-23T03:17:07;43.50;;;40.90;;
14187;SDS011;7175;51.978;5.330;2022-07-23T03:19:42;44.17;;;41.57;;
14187;SDS011;7175;51.978;5.330;2022-07-23T03:22:10;44.57;;;41.87;;
14187;SDS011;7175;51.978;5.330;2022-07-23T03:24:40;44.83;;;42.13;;
14187;SDS011;7175;51.978;5.330;2022-07-23T03:27:36;47.10;;;44.30;;
14187;SDS011;7175;51.978;5.330;2022-07-23T03:32:43;47.50;;;44.70;;
14187;SDS011;7175;51.978;5.330;2022-07-23T03:35:13;47.70;;;44.60;;
14187;SDS011;7175;51.978;5.330;2022-07-23T03:37:44;45.80;;;43.00;;
14187;SDS011;7175;51.978;5.330;2022-07-23T03:40:14;48.17;;;45.27;;
14187;SDS011;7175;51.978;5.330;2022-07-23T03:42:53;46.90;;;44.10;;
14187;SDS011;7175;51.978;5.330;2022-07-23T03:45:24;48.00;;;45.10;;
14187;SDS011;7175;51.978;5.330;2022-07-23T03:47:53;46.97;;;44.17;;
14187;SDS011;7175;51.978;5.330;2022-07-23T03:50:28;45.07;;;42.30;;
14187;SDS011;7175;51.978;5.330;2022-07-23T03:55:53;45.50;;;42.70;;
14187;SDS011;7175;51.978;5.330;2022-07-23T03:58:22;47.27;;;44.37;;
14187;SDS011;7175;51.978;5.330;2022-07-23T04:03:39;48.93;;;45.93;;
14187;SDS011;7175;51.978;5.330;2022-07-23T04:06:15;51.17;;;48.07;;
14187;SDS011;7175;51.978;5.330;2022-07-23T04:08:52;52.60;;;49.40;;
14187;SDS011;7175;51.978;5.330;2022-07-23T04:11:28;54.83;;;51.53;;
14187;SDS011;7175;51.978;5.330;2022-07-23T04:13:58;56.33;;;52.93;;
14187;SDS011;7175;51.978;5.330;2022-07-23T04:16:27;57.53;;;54.13;;
14187;SDS011;7175;51.978;5.330;2022-07-23T04:18:58;60.27;;;56.67;;
14187;SDS011;7175;51.978;5.330;2022-07-23T04:21:27;62.40;;;58.70;;
14187;SDS011;7175;51.978;5.330;2022-07-23T04:23:55;65.57;;;61.67;;
14187;SDS011;7175;51.978;5.330;2022-07-23T04:26:25;65.17;;;61.27;;
14187;SDS011;7175;51.978;5.330;2022-07-23T04:28:55;67.93;;;63.93;;
14187;SDS011;7175;51.978;5.330;2022-07-23T04:31:26;70.73;;;66.63;;
14187;SDS011;7175;51.978;5.330;2022-07-23T04:34:00;71.57;;;67.40;;
14187;SDS011;7175;51.978;5.330;2022-07-23T04:36:31;74.93;;;70.63;;
14187;SDS011;7175;51.978;5.330;2022-07-23T04:38:59;76.30;;;71.97;;
14187;SDS011;7175;51.978;5.330;2022-07-23T04:41:30;77.57;;;73.07;;
14187;SDS011;7175;51.978;5.330;2022-07-23T04:44:00;80.13;;;75.53;;
14187;SDS011;7175;51.978;5.330;2022-07-23T04:46:29;80.80;;;76.20;;
14187;SDS011;7175;51.978;5.330;2022-07-23T04:49:00;81.37;;;76.77;;
14187;SDS011;7175;51.978;5.330;2022-07-23T04:51:32;80.20;;;75.70;;
14187;SDS011;7175;51.978;5.330;2022-07-23T04:54:06;79.60;;;75.10;;
14187;SDS011;7175;51.978;5.330;2022-07-23T04:56:40;82.80;;;78.20;;
14187;SDS011;7175;51.978;5.330;2022-07-23T04:59:23;82.00;;;77.40;;
14187;SDS011;7175;51.978;5.330;2022-07-23T05:01:58;80.77;;;76.17;;
14187;SDS011;7175;51.978;5.330;2022-07-23T05:04:27;83.07;;;78.37;;
14187;SDS011;7175;51.978;5.330;2022-07-23T05:07:03;83.43;;;78.73;;
14187;SDS011;7175;51.978;5.330;2022-07-23T05:09:31;84.57;;;79.83;;
14187;SDS011;7175;51.978;5.330;2022-07-23T05:12:00;85.73;;;80.93;;
14187;SDS011;7175;51.978;5.330;2022-07-23T05:17:24;87.50;;;82.60;;
14187;SDS011;7175;51.978;5.330;2022-07-23T05:19:53;84.30;;;79.60;;
14187;SDS011;7175;51.978;5.330;2022-07-23T05:22:27;83.30;;;78.60;;
14187;SDS011;7175;51.978;5.330;2022-07-23T05:24:58;85.00;;;80.20;;
14187;SDS011;7175;51.978;5.330;2022-07-23T05:27:26;88.73;;;83.73;;
14187;SDS011;7175;51.978;5.330;2022-07-23T05:29:56;89.27;;;84.27;;
14187;SDS011;7175;51.978;5.330;2022-07-23T05:32:27;89.97;;;84.93;;
14187;SDS011;7175;51.978;5.330;2022-07-23T05:34:57;88.17;;;83.17;;
14187;SDS011;7175;51.978;5.330;2022-07-23T05:37:26;91.30;;;86.17;;
14187;SDS011;7175;51.978;5.330;2022-07-23T05:39:54;89.57;;;84.47;;
14187;SDS011;7175;51.978;5.330;2022-07-23T05:42:23;90.00;;;84.90;;
14187;SDS011;7175;51.978;5.330;2022-07-23T05:44:59;87.43;;;82.43;;
14187;SDS011;7175;51.978;5.330;2022-07-23T05:47:40;86.80;;;81.80;;
14187;SDS011;7175;51.978;5.330;2022-07-23T05:50:19;98.60;;;92.90;;
14187;SDS011;7175;51.978;5.330;2022-07-23T05:52:59;93.73;;;88.43;;
14187;SDS011;7175;51.978;5.330;2022-07-23T05:55:28;91.67;;;86.47;;
14187;SDS011;7175;51.978;5.330;2022-07-23T05:58:02;92.57;;;87.37;;
14187;SDS011;7175;51.978;5.330;2022-07-23T06:00:34;94.13;;;88.83;;
14187;SDS011;7175;51.978;5.330;2022-07-23T06:03:03;93.73;;;88.43;;
14187;SDS011;7175;51.978;5.330;2022-07-23T06:05:31;90.60;;;85.50;;
14187;SDS011;7175;51.978;5.330;2022-07-23T06:08:00;83.50;;;78.70;;
14187;SDS011;7175;51.978;5.330;2022-07-23T06:10:28;77.00;;;72.50;;
14187;SDS011;7175;51.978;5.330;2022-07-23T06:12:58;73.30;;;69.00;;
14187;SDS011;7175;51.978;5.330;2022-07-23T06:15:35;64.20;;;60.30;;
14187;SDS011;7175;51.978;5.330;2022-07-23T06:18:04;56.37;;;52.87;;
14187;SDS011;7175;51.978;5.330;2022-07-23T06:20:32;42.53;;;39.73;;
14187;SDS011;7175;51.978;5.330;2022-07-23T06:23:06;40.03;;;37.33;;
14187;SDS011;7175;51.978;5.330;2022-07-23T06:25:34;36.70;;;34.20;;
14187;SDS011;7175;51.978;5.330;2022-07-23T06:28:09;33.53;;;31.13;;
14187;SDS011;7175;51.978;5.330;2022-07-23T06:30:40;27.17;;;25.10;;
14187;SDS011;7175;51.978;5.330;2022-07-23T06:33:10;23.93;;;22.03;;
14187;SDS011;7175;51.978;5.330;2022-07-23T06:35:48;22.57;;;20.77;;
14187;SDS011;7175;51.978;5.330;2022-07-23T06:38:24;21.63;;;19.93;;
14187;SDS011;7175;51.978;5.330;2022-07-23T06:40:58;21.50;;;19.80;;
14187;SDS011;7175;51.978;5.330;2022-07-23T06:43:33;21.20;;;19.60;;
14187;SDS011;7175;51.978;5.330;2022-07-23T06:46:11;21.00;;;19.40;;
14187;SDS011;7175;51.978;5.330;2022-07-23T06:48:40;20.10;;;18.57;;
14187;SDS011;7175;51.978;5.330;2022-07-23T06:51:23;19.60;;;18.10;;
14187;SDS011;7175;51.978;5.330;2022-07-23T06:54:01;19.30;;;17.80;;
14187;SDS011;7175;51.978;5.330;2022-07-23T06:56:29;19.33;;;17.83;;
14187;SDS011;7175;51.978;5.330;2022-07-23T06:59:03;19.50;;;17.90;;
14187;SDS011;7175;51.978;5.330;2022-07-23T07:01:36;19.27;;;17.77;;
14187;SDS011;7175;51.978;5.330;2022-07-23T07:04:06;19.47;;;17.97;;
14187;SDS011;7175;51.978;5.330;2022-07-23T07:06:35;19.13;;;17.63;;
14187;SDS011;7175;51.978;5.330;2022-07-23T07:09:04;19.43;;;17.93;;
14187;SDS011;7175;51.978;5.330;2022-07-23T07:11:45;19.10;;;17.60;;
14187;SDS011;7175;51.978;5.330;2022-07-23T07:19:39;18.97;;;17.57;;
14187;SDS011;7175;51.978;5.330;2022-07-23T07:22:10;19.30;;;17.80;;
14187;SDS011;7175;51.978;5.330;2022-07-23T07:24:40;19.10;;;17.63;;
14187;SDS011;7175;51.978;5.330;2022-07-23T07:27:10;19.17;;;17.77;;
14187;SDS011;7175;51.978;5.330;2022-07-23T07:29:39;19.93;;;18.43;;
14187;SDS011;7175;51.978;5.330;2022-07-23T07:32:10;21.03;;;19.43;;
14187;SDS011;7175;51.978;5.330;2022-07-23T07:35:00;20.70;;;19.10;;
14187;SDS011;7175;51.978;5.330;2022-07-23T07:37:28;20.30;;;18.70;;
14187;SDS011;7175;51.978;5.330;2022-07-23T07:39:56;20.57;;;18.97;;
14187;SDS011;7175;51.978;5.330;2022-07-23T07:42:25;20.80;;;19.20;;
14187;SDS011;7175;51.978;5.330;2022-07-23T07:45:01;20.33;;;18.83;;
14187;SDS011;7175;51.978;5.330;2022-07-23T07:47:37;20.47;;;18.97;;
14187;SDS011;7175;51.978;5.330;2022-07-23T07:50:08;20.57;;;18.97;;
14187;SDS011;7175;51.978;5.330;2022-07-23T07:52:38;20.93;;;19.33;;
14187;SDS011;7175;51.978;5.330;2022-07-23T07:55:14;21.50;;;19.80;;
14187;SDS011;7175;51.978;5.330;2022-07-23T07:57:45;20.80;;;19.20;;
14187;SDS011;7175;51.978;5.330;2022-07-23T08:00:15;20.93;;;19.33;;
14187;SDS011;7175;51.978;5.330;2022-07-23T08:05:31;22.00;;;20.30;;
14187;SDS011;7175;51.978;5.330;2022-07-23T08:08:05;21.50;;;19.80;;
14187;SDS011;7175;51.978;5.330;2022-07-23T08:10:51;21.53;;;19.83;;
14187;SDS011;7175;51.978;5.330;2022-07-23T08:13:21;20.80;;;19.20;;
14187;SDS011;7175;51.978;5.330;2022-07-23T08:15:59;22.03;;;20.33;;
14187;SDS011;7175;51.978;5.330;2022-07-23T08:18:38;20.97;;;19.27;;
14187;SDS011;7175;51.978;5.330;2022-07-23T08:21:06;21.37;;;19.67;;
14187;SDS011;7175;51.978;5.330;2022-07-23T08:23:40;20.90;;;19.30;;
14187;SDS011;7175;51.978;5.330;2022-07-23T08:26:10;21.10;;;19.50;;
14187;SDS011;7175;51.978;5.330;2022-07-23T08:28:42;20.77;;;19.17;;
14187;SDS011;7175;51.978;5.330;2022-07-23T08:31:13;21.40;;;19.70;;
14187;SDS011;7175;51.978;5.330;2022-07-23T08:33:45;21.80;;;20.10;;
14187;SDS011;7175;51.978;5.330;2022-07-23T08:38:45;21.20;;;19.50;;
14187;SDS011;7175;51.978;5.330;2022-07-23T08:41:14;21.47;;;19.87;;
14187;SDS011;7175;51.978;5.330;2022-07-23T08:43:52;21.90;;;20.20;;
14187;SDS011;7175;51.978;5.330;2022-07-23T08:46:24;22.33;;;20.63;;
14187;SDS011;7175;51.978;5.330;2022-07-23T08:48:54;20.90;;;19.30;;
14187;SDS011;7175;51.978;5.330;2022-07-23T08:51:31;21.60;;;19.90;;
14187;SDS011;7175;51.978;5.330;2022-07-23T08:54:00;21.90;;;20.00;;
14187;SDS011;7175;51.978;5.330;2022-07-23T08:56:32;20.47;;;18.87;;
14187;SDS011;7175;51.978;5.330;2022-07-23T08:59:01;21.20;;;19.60;;
14187;SDS011;7175;51.978;5.330;2022-07-23T09:01:40;20.80;;;19.20;;
14187;SDS011;7175;51.978;5.330;2022-07-23T09:04:11;20.80;;;19.20;;
14187;SDS011;7175;51.978;5.330;2022-07-23T09:06:40;20.40;;;18.80;;
14187;SDS011;7175;51.978;5.330;2022-07-23T09:09:18;20.43;;;18.83;;
14187;SDS011;7175;51.978;5.330;2022-07-23T09:11:48;20.60;;;19.00;;
14187;SDS011;7175;51.978;5.330;2022-07-23T09:20:08;20.30;;;18.70;;
14187;SDS011;7175;51.978;5.330;2022-07-23T09:22:44;20.07;;;18.47;;
14187;SDS011;7175;51.978;5.330;2022-07-23T09:25:16;19.87;;;18.27;;
14187;SDS011;7175;51.978;5.330;2022-07-23T09:30:35;19.57;;;17.97;;
14187;SDS011;7175;51.978;5.330;2022-07-23T09:33:15;20.20;;;18.60;;
14187;SDS011;7175;51.978;5.330;2022-07-23T09:35:53;19.70;;;18.10;;
14187;SDS011;7175;51.978;5.330;2022-07-23T09:38:30;21.47;;;19.57;;
14187;SDS011;7175;51.978;5.330;2022-07-23T09:41:09;19.70;;;18.10;;
14187;SDS011;7175;51.978;5.330;2022-07-23T09:43:41;18.30;;;16.90;;
14187;SDS011;7175;51.978;5.330;2022-07-23T09:46:17;19.10;;;17.60;;
14187;SDS011;7175;51.978;5.330;2022-07-23T09:48:56;18.47;;;17.07;;
14187;SDS011;7175;51.978;5.330;2022-07-23T09:51:27;18.30;;;16.90;;
14187;SDS011;7175;51.978;5.330;2022-07-23T09:54:02;18.37;;;16.97;;
14187;SDS011;7175;51.978;5.330;2022-07-23T09:56:33;18.40;;;17.00;;
14187;SDS011;7175;51.978;5.330;2022-07-23T09:59:10;18.70;;;17.30;;
14187;SDS011;7175;51.978;5.330;2022-07-23T10:01:39;18.67;;;17.27;;
14187;SDS011;7175;51.978;5.330;2022-07-23T10:04:19;18.70;;;17.30;;
14187;SDS011;7175;51.978;5.330;2022-07-23T10:06:58;18.70;;;17.30;;
14187;SDS011;7175;51.978;5.330;2022-07-23T10:09:31;19.10;;;17.60;;
14187;SDS011;7175;51.978;5.330;2022-07-23T10:12:05;19.03;;;17.53;;
14187;SDS011;7175;51.978;5.330;2022-07-23T10:14:55;18.90;;;17.40;;
14187;SDS011;7175;51.978;5.330;2022-07-23T10:17:39;19.00;;;17.50;;
14187;SDS011;7175;51.978;5.330;2022-07-23T10:20:09;21.23;;;19.33;;
14187;SDS011;7175;51.978;5.330;2022-07-23T10:22:42;19.00;;;17.50;;
14187;SDS011;7175;51.978;5.330;2022-07-23T10:25:26;19.20;;;17.70;;
14187;SDS011;7175;51.978;5.330;2022-07-23T10:31:02;19.30;;;17.80;;
14187;SDS011;7175;51.978;5.330;2022-07-23T10:34:00;19.60;;;17.90;;
14187;SDS011;7175;51.978;5.330;2022-07-23T10:36:38;19.00;;;17.50;;
14187;SDS011;7175;51.978;5.330;2022-07-23T10:42:07;19.23;;;17.73;;
14187;SDS011;7175;51.978;5.330;2022-07-23T10:44:40;19.23;;;17.73;;
14187;SDS011;7175;51.978;5.330;2022-07-23T10:47:10;19.33;;;17.83;;
14187;SDS011;7175;51.978;5.330;2022-07-23T11:05:07;19.07;;;17.57;;
14187;SDS011;7175;51.978;5.330;2022-07-23T11:10:52;18.43;;;17.00;;
14187;SDS011;7175;51.978;5.330;2022-07-23T11:16:28;19.23;;;17.73;;
14187;SDS011;7175;51.978;5.330;2022-07-23T11:19:06;18.80;;;17.30;;
14187;SDS011;7175;51.978;5.330;2022-07-23T11:21:52;19.00;;;17.50;;
14187;SDS011;7175;51.978;5.330;2022-07-23T11:24:21;18.77;;;17.27;;
14187;SDS011;7175;51.978;5.330;2022-07-23T11:33:16;18.33;;;16.93;;
14187;SDS011;7175;51.978;5.330;2022-07-23T11:36:01;18.87;;;17.37;;
14187;SDS011;7175;51.978;5.330;2022-07-23T11:41:43;19.00;;;17.50;;
14187;SDS011;7175;51.978;5.330;2022-07-23T11:44:24;19.60;;;18.00;;
14187;SDS011;7175;51.978;5.330;2022-07-23T11:50:07;18.57;;;17.10;;
14187;SDS011;7175;51.978;5.330;2022-07-23T11:52:36;19.07;;;17.57;;
14187;SDS011;7175;51.978;5.330;2022-07-23T11:57:40;18.70;;;17.20;;
14187;SDS011;7175;51.978;5.330;2022-07-23T12:00:19;19.50;;;17.90;;
14187;SDS011;7175;51.978;5.330;2022-07-23T12:02:52;18.50;;;17.10;;
14187;SDS011;7175;51.978;5.330;2022-07-23T12:05:33;18.40;;;17.00;;
14187;SDS011;7175;51.978;5.330;2022-07-23T12:11:03;18.90;;;17.40;;
14187;SDS011;7175;51.978;5.330;2022-07-23T12:16:47;18.63;;;17.13;;
14187;SDS011;7175;51.978;5.330;2022-07-23T12:19:52;19.70;;;18.10;;
14187;SDS011;7175;51.978;5.330;2022-07-23T12:28:27;18.90;;;17.40;;
14187;SDS011;7175;51.978;5.330;2022-07-23T12:34:37;19.40;;;17.80;;
14187;SDS011;7175;51.978;5.330;2022-07-23T12:37:08;19.03;;;17.53;;
14187;SDS011;7175;51.978;5.330;2022-07-23T12:39:54;19.07;;;17.57;;
14187;SDS011;7175;51.978;5.330;2022-07-23T12:42:23;19.60;;;18.00;;
14187;SDS011;7175;51.978;5.330;2022-07-23T12:45:10;19.27;;;17.77;;
14187;SDS011;7175;51.978;5.330;2022-07-23T12:47:51;19.33;;;17.77;;
14187;SDS011;7175;51.978;5.330;2022-07-23T12:53:37;19.60;;;18.00;;
14187;SDS011;7175;51.978;5.330;2022-07-23T12:56:17;19.27;;;17.77;;
14187;SDS011;7175;51.978;5.330;2022-07-23T12:58:54;18.97;;;17.47;;
14187;SDS011;7175;51.978;5.330;2022-07-23T13:01:29;19.50;;;17.90;;
14187;SDS011;7175;51.978;5.330;2022-07-23T13:04:09;19.40;;;17.90;;
14187;SDS011;7175;51.978;5.330;2022-07-23T13:06:41;19.17;;;17.63;;
14187;SDS011;7175;51.978;5.330;2022-07-23T13:09:13;19.00;;;17.50;;
14187;SDS011;7175;51.978;5.330;2022-07-23T13:11:55;19.20;;;17.70;;
14187;SDS011;7175;51.978;5.330;2022-07-23T13:14:27;19.63;;;18.03;;
14187;SDS011;7175;51.978;5.330;2022-07-23T13:16:57;19.40;;;17.80;;
14187;SDS011;7175;51.978;5.330;2022-07-23T13:19:26;19.57;;;17.97;;
14187;SDS011;7175;51.978;5.330;2022-07-23T13:21:54;19.50;;;17.90;;
14187;SDS011;7175;51.978;5.330;2022-07-23T13:24:24;19.40;;;17.83;;
14187;SDS011;7175;51.978;5.330;2022-07-23T13:27:02;19.63;;;18.03;;
14187;SDS011;7175;51.978;5.330;2022-07-23T13:29:39;19.33;;;17.83;;
14187;SDS011;7175;51.978;5.330;2022-07-23T13:32:15;19.20;;;17.70;;
14187;SDS011;7175;51.978;5.330;2022-07-23T13:34:44;18.90;;;17.40;;
14187;SDS011;7175;51.978;5.330;2022-07-23T13:41:05;19.30;;;17.80;;
14187;SDS011;7175;51.978;5.330;2022-07-23T13:49:20;19.47;;;17.87;;
14187;SDS011;7175;51.978;5.330;2022-07-23T13:52:04;19.53;;;17.93;;
14187;SDS011;7175;51.978;5.330;2022-07-23T13:57:32;20.40;;;18.80;;
14187;SDS011;7175;51.978;5.330;2022-07-23T14:00:02;19.90;;;18.30;;
14187;SDS011;7175;51.978;5.330;2022-07-23T14:06:14;19.93;;;18.33;;
14187;SDS011;7175;51.978;5.330;2022-07-23T14:12:36;19.87;;;18.27;;
14187;SDS011;7175;51.978;5.330;2022-07-23T14:15:17;19.57;;;18.03;;
14187;SDS011;7175;51.978;5.330;2022-07-23T14:17:59;19.33;;;17.73;;
14187;SDS011;7175;51.978;5.330;2022-07-23T14:20:33;19.67;;;18.07;;
14187;SDS011;7175;51.978;5.330;2022-07-23T14:28:58;20.00;;;18.37;;
14187;SDS011;7175;51.978;5.330;2022-07-23T14:38:09;20.57;;;18.73;;
14187;SDS011;7175;51.978;5.330;2022-07-23T14:44:26;20.03;;;18.37;;
14187;SDS011;7175;51.978;5.330;2022-07-23T14:46:59;19.93;;;18.27;;
14187;SDS011;7175;51.978;5.330;2022-07-23T14:52:30;19.77;;;18.17;;
14187;SDS011;7175;51.978;5.330;2022-07-23T14:58:32;19.90;;;18.27;;
14187;SDS011;7175;51.978;5.330;2022-07-23T15:10:40;20.10;;;18.40;;
14187;SDS011;7175;51.978;5.330;2022-07-23T15:16:03;19.50;;;17.90;;
14187;SDS011;7175;51.978;5.330;2022-07-23T15:18:38;18.83;;;17.33;;
14187;SDS011;7175;51.978;5.330;2022-07-23T15:27:11;18.90;;;17.40;;
14187;SDS011;7175;51.978;5.330;2022-07-23T15:39:45;19.37;;;17.77;;
14187;SDS011;7175;51.978;5.330;2022-07-23T15:45:28;19.20;;;17.70;;
14187;SDS011;7175;51.978;5.330;2022-07-23T15:54:06;19.23;;;17.73;;
14187;SDS011;7175;51.978;5.330;2022-07-23T15:56:46;20.23;;;18.63;;
14187;SDS011;7175;51.978;5.330;2022-07-23T15:59:31;19.57;;;18.07;;
14187;SDS011;7175;51.978;5.330;2022-07-23T16:02:14;19.70;;;18.20;;
14187;SDS011;7175;51.978;5.330;2022-07-23T16:04:54;19.37;;;17.87;;
14187;SDS011;7175;51.978;5.330;2022-07-23T16:10:35;49.80;;;44.77;;
14187;SDS011;7175;51.978;5.330;2022-07-23T16:13:11;24.17;;;22.10;;
14187;SDS011;7175;51.978;5.330;2022-07-23T16:19:27;23.60;;;21.60;;
14187;SDS011;7175;51.978;5.330;2022-07-23T16:21:55;18.57;;;17.17;;
14187;SDS011;7175;51.978;5.330;2022-07-23T16:24:24;18.97;;;17.47;;
14187;SDS011;7175;51.978;5.330;2022-07-23T16:26:53;19.40;;;17.90;;
14187;SDS011;7175;51.978;5.330;2022-07-23T16:29:23;18.93;;;17.43;;
14187;SDS011;7175;51.978;5.330;2022-07-23T16:31:52;19.00;;;17.50;;
14187;SDS011;7175;51.978;5.330;2022-07-23T16:46:45;18.97;;;17.47;;
14187;SDS011;7175;51.978;5.330;2022-07-23T16:49:17;19.43;;;17.87;;
14187;SDS011;7175;51.978;5.330;2022-07-23T16:51:57;19.33;;;17.83;;
14187;SDS011;7175;51.978;5.330;2022-07-23T16:57:25;18.90;;;17.30;;
14187;SDS011;7175;51.978;5.330;2022-07-23T17:00:07;18.87;;;17.37;;
14187;SDS011;7175;51.978;5.330;2022-07-23T17:02:51;18.87;;;17.37;;
14187;SDS011;7175;51.978;5.330;2022-07-23T17:05:22;19.07;;;17.57;;
14187;SDS011;7175;51.978;5.330;2022-07-23T17:08:03;18.73;;;17.23;;
14187;SDS011;7175;51.978;5.330;2022-07-23T17:19:30;18.33;;;16.93;;
14187;SDS011;7175;51.978;5.330;2022-07-23T17:21:59;17.97;;;16.57;;
14187;SDS011;7175;51.978;5.330;2022-07-23T17:33:48;19.37;;;17.80;;
14187;SDS011;7175;51.978;5.330;2022-07-23T17:36:27;17.87;;;16.47;;
14187;SDS011;7175;51.978;5.330;2022-07-23T17:50:46;18.00;;;16.60;;
14187;SDS011;7175;51.978;5.330;2022-07-23T17:56:00;18.20;;;16.80;;
14187;SDS011;7175;51.978;5.330;2022-07-23T18:02:10;17.90;;;16.50;;
14187;SDS011;7175;51.978;5.330;2022-07-23T18:11:26;18.00;;;16.60;;
14187;SDS011;7175;51.978;5.330;2022-07-23T18:14:12;17.87;;;16.47;;
14187;SDS011;7175;51.978;5.330;2022-07-23T18:29:28;19.10;;;17.70;;
14187;SDS011;7175;51.978;5.330;2022-07-23T19:07:34;18.97;;;17.57;;
14187;SDS011;7175;51.978;5.330;2022-07-23T19:10:05;19.30;;;17.80;;
14187;SDS011;7175;51.978;5.330;2022-07-23T19:15:40;19.53;;;18.00;;
14187;SDS011;7175;51.978;5.330;2022-07-23T19:21:46;18.40;;;17.00;;
14187;SDS011;7175;51.978;5.330;2022-07-23T19:27:08;19.23;;;17.73;;
14187;SDS011;7175;51.978;5.330;2022-07-23T19:29:36;18.87;;;17.47;;
14187;SDS011;7175;51.978;5.330;2022-07-23T19:32:05;19.27;;;17.87;;
14187;SDS011;7175;51.978;5.330;2022-07-23T19:34:35;18.63;;;17.23;;
14187;SDS011;7175;51.978;5.330;2022-07-23T19:37:04;18.80;;;17.40;;
14187;SDS011;7175;51.978;5.330;2022-07-23T19:39:44;19.03;;;17.63;;
14187;SDS011;7175;51.978;5.330;2022-07-23T19:42:15;19.10;;;17.70;;
14187;SDS011;7175;51.978;5.330;2022-07-23T19:44:54;19.17;;;17.77;;
14187;SDS011;7175;51.978;5.330;2022-07-23T19:47:26;19.27;;;17.87;;
14187;SDS011;7175;51.978;5.330;2022-07-23T19:49:58;19.60;;;18.00;;
14187;SDS011;7175;51.978;5.330;2022-07-23T19:52:27;20.03;;;18.63;;
14187;SDS011;7175;51.978;5.330;2022-07-23T19:54:55;20.13;;;18.63;;
14187;SDS011;7175;51.978;5.330;2022-07-23T19:57:27;19.07;;;17.67;;
14187;SDS011;7175;51.978;5.330;2022-07-23T20:06:45;19.20;;;17.90;;
14187;SDS011;7175;51.978;5.330;2022-07-23T20:30:06;19.03;;;17.73;;
14187;SDS011;7175;51.978;5.330;2022-07-23T20:35:40;18.60;;;17.27;;
14187;SDS011;7175;51.978;5.330;2022-07-23T20:41:20;19.27;;;17.70;;
14187;SDS011;7175;51.978;5.330;2022-07-23T20:43:51;20.70;;;18.90;;
14187;SDS011;7175;51.978;5.330;2022-07-23T20:46:21;18.43;;;17.03;;
14187;SDS011;7175;51.978;5.330;2022-07-23T20:48:53;19.17;;;17.77;;
14187;SDS011;7175;51.978;5.330;2022-07-23T20:51:27;18.90;;;17.50;;